Pagina principale
METAR-TAF:

METAR-TAF

Aeroporti :

Aeroporto di Decimomannu

Decimomannu, Italia

latitudine: 39-21N, longitudine: 008-58E, altezza: 29 m

Osservazione

Il bollettino è stato emesso 21 minuti fa, alle 18:55 UTC
Vento 6 kt da sud-est
Temperature 25°C
Umidità 89%
Pressione 1014 hPa
Visibilità 10 km o più
Poco nuvoloso ad un'altezza di 1800 ft, Cumulonembo.
Nubi sparse ad un'altezza di 4000 ft

METAR: LIED 231855Z 14006KT 9999 FEW018CB SCT040 25/23 Q1014 RMK BKN VIS MIN 9999 WIND THR35 14007KT WIND THR17 /////KT BLU

Ora: 21:16 (19:16 UTC)

Previsione

Il bollettino è stato emesso 2 ore e 16 minuti fa, alle 17:00 UTC
Previsione valida dal 23 alle 18 UTC al 24 alle 03 UTC
Vento 7 kt da sud/sud-est
Visibilità 10 km o più
Nubi sparse ad un'altezza di 2300 ft

TAF: LIED 231700Z 2318/2403 15007KT 9999 SCT023

Osservazioni e previsioni meteorologiche di più di 4000 aeroporti (messaggi METAR e TAF).

Le stazioni disponibili sono rappresentate dai dischi gialli e rossi sulla carta.

Puntare il mouse per vedere il nome della stazione.

Clicca sopra per visualizzare le osservazioni e previsioni meteorologiche.

Per cambiare la mappa : fare clic sui pulsanti verdi con una croce nera per ingrandire, il pulsante verde con un trattino per diminuire, o sulla freccia verde per le mappe adiacenti.


METAR-TAF: